sensor_id;sensor_type;location;lat;lon;timestamp;pressure;altitude;pressure_sealevel;temperature;humidity
7333;BME280;3707;43.618;25.342;2022-09-13T00:01:49;99809.75;;;19.64;99.61
7333;BME280;3707;43.618;25.342;2022-09-13T00:04:16;99817.56;;;19.67;99.20
7333;BME280;3707;43.618;25.342;2022-09-13T00:06:43;99809.16;;;19.54;99.15
7333;BME280;3707;43.618;25.342;2022-09-13T00:09:11;99813.75;;;19.78;98.04
7333;BME280;3707;43.618;25.342;2022-09-13T00:11:38;99807.88;;;19.69;97.44
7333;BME280;3707;43.618;25.342;2022-09-13T00:14:05;99780.31;;;19.50;97.54
7333;BME280;3707;43.618;25.342;2022-09-13T00:16:31;99738.00;;;19.25;98.16
7333;BME280;3707;43.618;25.342;2022-09-13T00:18:58;99789.97;;;19.49;99.52
7333;BME280;3707;43.618;25.342;2022-09-13T00:21:25;99800.41;;;19.52;99.78
7333;BME280;3707;43.618;25.342;2022-09-13T00:23:53;99803.91;;;19.53;100.00
7333;BME280;3707;43.618;25.342;2022-09-13T00:26:23;99797.00;;;19.49;99.53
7333;BME280;3707;43.618;25.342;2022-09-13T00:28:51;99808.59;;;19.40;99.43
7333;BME280;3707;43.618;25.342;2022-09-13T00:31:18;99791.28;;;19.31;99.25
7333;BME280;3707;43.618;25.342;2022-09-13T00:33:46;99813.84;;;19.42;98.69
7333;BME280;3707;43.618;25.342;2022-09-13T00:36:13;99809.44;;;19.42;98.58
7333;BME280;3707;43.618;25.342;2022-09-13T00:38:41;99797.22;;;19.40;99.67
7333;BME280;3707;43.618;25.342;2022-09-13T00:41:11;99791.94;;;19.40;99.66
7333;BME280;3707;43.618;25.342;2022-09-13T00:43:48;99772.78;;;19.35;99.29
7333;BME280;3707;43.618;25.342;2022-09-13T00:46:24;99795.22;;;19.49;99.01
7333;BME280;3707;43.618;25.342;2022-09-13T00:48:56;99803.31;;;19.42;99.58
7333;BME280;3707;43.618;25.342;2022-09-13T00:51:25;99806.16;;;19.33;100.00
7333;BME280;3707;43.618;25.342;2022-09-13T00:53:53;99786.25;;;19.22;100.00
7333;BME280;3707;43.618;25.342;2022-09-13T00:56:27;99806.88;;;19.38;100.00
7333;BME280;3707;43.618;25.342;2022-09-13T00:58:59;99807.72;;;19.40;100.00
7333;BME280;3707;43.618;25.342;2022-09-13T01:01:31;99816.34;;;19.46;99.88
7333;BME280;3707;43.618;25.342;2022-09-13T01:04:00;99767.34;;;19.08;99.52
7333;BME280;3707;43.618;25.342;2022-09-13T01:06:30;99810.44;;;19.37;99.77
7333;BME280;3707;43.618;25.342;2022-09-13T01:08:59;99795.03;;;19.21;99.26
7333;BME280;3707;43.618;25.342;2022-09-13T01:11:32;99805.31;;;19.30;99.81
7333;BME280;3707;43.618;25.342;2022-09-13T01:14:05;99805.91;;;19.06;100.00
7333;BME280;3707;43.618;25.342;2022-09-13T01:16:33;99789.06;;;18.79;100.00
7333;BME280;3707;43.618;25.342;2022-09-13T01:19:00;99799.34;;;18.87;100.00
7333;BME280;3707;43.618;25.342;2022-09-13T01:21:52;99796.56;;;18.95;100.00
7333;BME280;3707;43.618;25.342;2022-09-13T01:24:50;99798.16;;;18.63;100.00
7333;BME280;3707;43.618;25.342;2022-09-13T01:27:40;99798.13;;;18.65;100.00
7333;BME280;3707;43.618;25.342;2022-09-13T01:30:21;99715.50;;;18.01;100.00
7333;BME280;3707;43.618;25.342;2022-09-13T01:35:48;99732.84;;;18.07;100.00
7333;BME280;3707;43.618;25.342;2022-09-13T01:38:33;99783.63;;;18.46;100.00
7333;BME280;3707;43.618;25.342;2022-09-13T01:41:09;99782.75;;;18.47;100.00
7333;BME280;3707;43.618;25.342;2022-09-13T01:43:51;99783.53;;;18.50;100.00
7333;BME280;3707;43.618;25.342;2022-09-13T01:46:25;99782.81;;;18.44;100.00
7333;BME280;3707;43.618;25.342;2022-09-13T01:48:56;99784.75;;;18.36;100.00
7333;BME280;3707;43.618;25.342;2022-09-13T01:51:30;99785.44;;;18.44;100.00
7333;BME280;3707;43.618;25.342;2022-09-13T01:54:08;99780.13;;;18.45;100.00
7333;BME280;3707;43.618;25.342;2022-09-13T01:56:42;99793.41;;;18.39;100.00
7333;BME280;3707;43.618;25.342;2022-09-13T01:59:20;99783.88;;;18.33;100.00
7333;BME280;3707;43.618;25.342;2022-09-13T02:01:54;99781.41;;;18.27;100.00
7333;BME280;3707;43.618;25.342;2022-09-13T02:04:26;99791.84;;;18.30;100.00
7333;BME280;3707;43.618;25.342;2022-09-13T02:07:00;99778.91;;;18.21;100.00
7333;BME280;3707;43.618;25.342;2022-09-13T02:09:31;99786.50;;;18.33;100.00
7333;BME280;3707;43.618;25.342;2022-09-13T02:12:04;99779.63;;;18.29;100.00
7333;BME280;3707;43.618;25.342;2022-09-13T02:14:34;99783.28;;;18.22;100.00
7333;BME280;3707;43.618;25.342;2022-09-13T02:17:06;99778.97;;;18.18;100.00
7333;BME280;3707;43.618;25.342;2022-09-13T02:19:40;99777.22;;;18.19;100.00
7333;BME280;3707;43.618;25.342;2022-09-13T02:22:12;99750.44;;;18.03;100.00
7333;BME280;3707;43.618;25.342;2022-09-13T02:24:41;99774.78;;;18.10;100.00
7333;BME280;3707;43.618;25.342;2022-09-13T02:27:12;99761.06;;;17.96;100.00
7333;BME280;3707;43.618;25.342;2022-09-13T02:29:44;99782.03;;;17.97;100.00
7333;BME280;3707;43.618;25.342;2022-09-13T02:32:15;99779.31;;;18.02;100.00
7333;BME280;3707;43.618;25.342;2022-09-13T02:34:47;99757.66;;;17.92;100.00
7333;BME280;3707;43.618;25.342;2022-09-13T02:37:16;99750.19;;;17.72;100.00
7333;BME280;3707;43.618;25.342;2022-09-13T02:39:46;99778.56;;;17.95;100.00
7333;BME280;3707;43.618;25.342;2022-09-13T02:42:18;99785.41;;;18.02;100.00
7333;BME280;3707;43.618;25.342;2022-09-13T02:44:48;99772.25;;;18.05;100.00
7333;BME280;3707;43.618;25.342;2022-09-13T02:47:32;99765.78;;;18.21;100.00
7333;BME280;3707;43.618;25.342;2022-09-13T02:50:12;99749.91;;;17.86;100.00
7333;BME280;3707;43.618;25.342;2022-09-13T02:52:46;99771.31;;;17.63;100.00
7333;BME280;3707;43.618;25.342;2022-09-13T02:55:18;99759.16;;;17.59;100.00
7333;BME280;3707;43.618;25.342;2022-09-13T02:58:00;99776.19;;;17.83;100.00
7333;BME280;3707;43.618;25.342;2022-09-13T03:00:28;99790.41;;;17.70;100.00
7333;BME280;3707;43.618;25.342;2022-09-13T03:02:58;99788.59;;;17.75;100.00
7333;BME280;3707;43.618;25.342;2022-09-13T03:05:28;99791.38;;;17.66;100.00
7333;BME280;3707;43.618;25.342;2022-09-13T03:07:58;99783.41;;;17.72;100.00
7333;BME280;3707;43.618;25.342;2022-09-13T03:10:30;99779.91;;;17.71;100.00
7333;BME280;3707;43.618;25.342;2022-09-13T03:13:28;99775.41;;;17.78;100.00
7333;BME280;3707;43.618;25.342;2022-09-13T03:16:09;99774.69;;;17.70;100.00
7333;BME280;3707;43.618;25.342;2022-09-13T03:18:54;99778.19;;;17.70;100.00
7333;BME280;3707;43.618;25.342;2022-09-13T03:21:42;99800.00;;;17.72;100.00
7333;BME280;3707;43.618;25.342;2022-09-13T03:24:19;99778.59;;;17.46;100.00
7333;BME280;3707;43.618;25.342;2022-09-13T03:26:58;99789.09;;;17.45;100.00
7333;BME280;3707;43.618;25.342;2022-09-13T03:29:33;99786.59;;;17.39;100.00
7333;BME280;3707;43.618;25.342;2022-09-13T03:32:11;99790.00;;;17.44;100.00
7333;BME280;3707;43.618;25.342;2022-09-13T03:34:48;99774.53;;;17.28;100.00
7333;BME280;3707;43.618;25.342;2022-09-13T03:37:24;99790.22;;;17.31;100.00
7333;BME280;3707;43.618;25.342;2022-09-13T03:39:56;99768.63;;;17.17;100.00
7333;BME280;3707;43.618;25.342;2022-09-13T03:42:31;99772.91;;;17.21;100.00
7333;BME280;3707;43.618;25.342;2022-09-13T03:45:01;99751.28;;;17.09;100.00
7333;BME280;3707;43.618;25.342;2022-09-13T03:47:31;99786.66;;;17.35;100.00
7333;BME280;3707;43.618;25.342;2022-09-13T03:50:02;99781.41;;;17.34;100.00
7333;BME280;3707;43.618;25.342;2022-09-13T03:52:30;99773.91;;;17.13;100.00
7333;BME280;3707;43.618;25.342;2022-09-13T03:54:57;99776.59;;;17.10;100.00
7333;BME280;3707;43.618;25.342;2022-09-13T03:57:24;99779.91;;;17.19;100.00
7333;BME280;3707;43.618;25.342;2022-09-13T03:59:52;99752.78;;;17.23;100.00
7333;BME280;3707;43.618;25.342;2022-09-13T04:02:21;99755.38;;;17.25;100.00
7333;BME280;3707;43.618;25.342;2022-09-13T04:04:48;99772.88;;;17.24;100.00
7333;BME280;3707;43.618;25.342;2022-09-13T04:07:18;99765.84;;;17.26;100.00
7333;BME280;3707;43.618;25.342;2022-09-13T04:09:45;99772.97;;;17.18;100.00
7333;BME280;3707;43.618;25.342;2022-09-13T04:12:13;99770.94;;;17.34;100.00
7333;BME280;3707;43.618;25.342;2022-09-13T04:14:40;99777.91;;;17.37;100.00
7333;BME280;3707;43.618;25.342;2022-09-13T04:17:08;99762.25;;;17.30;100.00
7333;BME280;3707;43.618;25.342;2022-09-13T04:19:36;99780.34;;;17.46;100.00
7333;BME280;3707;43.618;25.342;2022-09-13T04:22:03;99771.75;;;17.38;100.00
7333;BME280;3707;43.618;25.342;2022-09-13T04:24:31;99777.56;;;17.58;100.00
7333;BME280;3707;43.618;25.342;2022-09-13T04:27:00;99777.38;;;17.67;100.00
7333;BME280;3707;43.618;25.342;2022-09-13T04:29:27;99781.09;;;17.52;100.00
7333;BME280;3707;43.618;25.342;2022-09-13T04:31:54;99779.03;;;17.71;100.00
7333;BME280;3707;43.618;25.342;2022-09-13T04:34:21;99783.06;;;17.90;100.00
7333;BME280;3707;43.618;25.342;2022-09-13T04:36:49;99786.34;;;18.43;100.00
7333;BME280;3707;43.618;25.342;2022-09-13T04:39:17;99753.94;;;18.82;100.00
7333;BME280;3707;43.618;25.342;2022-09-13T04:41:46;99781.13;;;19.84;100.00
7333;BME280;3707;43.618;25.342;2022-09-13T04:44:15;99806.50;;;20.50;92.81
7333;BME280;3707;43.618;25.342;2022-09-13T04:46:45;99799.00;;;21.21;87.71
7333;BME280;3707;43.618;25.342;2022-09-13T04:49:13;99816.03;;;21.88;84.13
7333;BME280;3707;43.618;25.342;2022-09-13T04:51:40;99801.38;;;22.29;78.07
7333;BME280;3707;43.618;25.342;2022-09-13T04:54:08;99809.38;;;22.51;72.29
7333;BME280;3707;43.618;25.342;2022-09-13T04:56:36;99825.53;;;22.42;76.54
7333;BME280;3707;43.618;25.342;2022-09-13T04:59:04;99827.28;;;22.43;73.04
7333;BME280;3707;43.618;25.342;2022-09-13T05:01:31;99816.56;;;22.22;72.39
7333;BME280;3707;43.618;25.342;2022-09-13T05:03:58;99837.50;;;22.52;71.62
7333;BME280;3707;43.618;25.342;2022-09-13T05:06:25;99846.28;;;22.29;69.89
7333;BME280;3707;43.618;25.342;2022-09-13T05:08:53;99844.47;;;22.06;69.96
7333;BME280;3707;43.618;25.342;2022-09-13T05:11:21;99839.03;;;21.60;71.81
7333;BME280;3707;43.618;25.342;2022-09-13T05:13:49;99844.09;;;21.12;73.32
7333;BME280;3707;43.618;25.342;2022-09-13T05:16:22;99846.41;;;20.65;77.74
7333;BME280;3707;43.618;25.342;2022-09-13T05:18:49;99853.25;;;20.42;79.38
7333;BME280;3707;43.618;25.342;2022-09-13T05:21:17;99846.03;;;20.16;80.17
7333;BME280;3707;43.618;25.342;2022-09-13T05:23:44;99817.94;;;19.86;82.46
7333;BME280;3707;43.618;25.342;2022-09-13T05:26:11;99759.09;;;19.22;83.54
7333;BME280;3707;43.618;25.342;2022-09-13T05:28:38;99845.59;;;19.33;86.54
7333;BME280;3707;43.618;25.342;2022-09-13T05:31:07;99849.84;;;19.01;88.87
7333;BME280;3707;43.618;25.342;2022-09-13T05:33:37;99847.81;;;19.12;91.17
7333;BME280;3707;43.618;25.342;2022-09-13T05:36:04;99773.00;;;18.55;90.56
7333;BME280;3707;43.618;25.342;2022-09-13T05:38:31;99837.50;;;19.05;90.88
7333;BME280;3707;43.618;25.342;2022-09-13T05:40:59;99848.16;;;19.36;89.97
7333;BME280;3707;43.618;25.342;2022-09-13T05:43:28;99830.88;;;19.25;89.97
7333;BME280;3707;43.618;25.342;2022-09-13T05:46:02;99846.75;;;19.58;87.92
7333;BME280;3707;43.618;25.342;2022-09-13T05:48:30;99817.56;;;19.31;87.41
7333;BME280;3707;43.618;25.342;2022-09-13T05:51:08;99846.28;;;19.76;86.95
7333;BME280;3707;43.618;25.342;2022-09-13T05:53:36;99856.81;;;19.76;86.45
7333;BME280;3707;43.618;25.342;2022-09-13T05:56:04;99859.22;;;19.84;87.01
7333;BME280;3707;43.618;25.342;2022-09-13T05:58:31;99862.72;;;19.84;89.79
7333;BME280;3707;43.618;25.342;2022-09-13T06:00:59;99862.38;;;19.64;89.24
7333;BME280;3707;43.618;25.342;2022-09-13T06:03:26;99833.59;;;19.58;93.61
7333;BME280;3707;43.618;25.342;2022-09-13T06:05:56;99857.25;;;20.24;100.00
7333;BME280;3707;43.618;25.342;2022-09-13T06:08:25;99856.75;;;20.10;89.49
7333;BME280;3707;43.618;25.342;2022-09-13T06:10:54;99860.84;;;19.89;90.31
7333;BME280;3707;43.618;25.342;2022-09-13T06:13:22;99844.22;;;19.53;93.26
7333;BME280;3707;43.618;25.342;2022-09-13T06:15:50;99858.84;;;19.65;93.12
7333;BME280;3707;43.618;25.342;2022-09-13T06:18:17;99856.66;;;19.47;96.12
7333;BME280;3707;43.618;25.342;2022-09-13T06:20:44;99837.72;;;19.33;94.22
7333;BME280;3707;43.618;25.342;2022-09-13T06:23:11;99858.31;;;19.51;93.64
7333;BME280;3707;43.618;25.342;2022-09-13T06:25:39;99852.13;;;19.52;95.61
7333;BME280;3707;43.618;25.342;2022-09-13T06:28:07;99875.06;;;19.80;96.32
7333;BME280;3707;43.618;25.342;2022-09-13T06:30:34;99855.38;;;19.63;95.38
7333;BME280;3707;43.618;25.342;2022-09-13T06:33:01;99888.16;;;20.16;91.34
7333;BME280;3707;43.618;25.342;2022-09-13T06:35:28;99860.56;;;19.98;90.60
7333;BME280;3707;43.618;25.342;2022-09-13T06:37:55;99896.06;;;20.16;89.28
7333;BME280;3707;43.618;25.342;2022-09-13T06:40:23;99887.06;;;20.24;89.56
7333;BME280;3707;43.618;25.342;2022-09-13T06:42:51;99897.91;;;20.12;89.15
7333;BME280;3707;43.618;25.342;2022-09-13T06:45:18;99890.50;;;19.94;92.73
7333;BME280;3707;43.618;25.342;2022-09-13T06:47:46;99895.88;;;20.23;91.19
7333;BME280;3707;43.618;25.342;2022-09-13T06:50:12;99903.75;;;20.23;89.52
7333;BME280;3707;43.618;25.342;2022-09-13T06:52:39;99894.19;;;19.87;91.17
7333;BME280;3707;43.618;25.342;2022-09-13T06:55:07;99902.59;;;20.01;90.66
7333;BME280;3707;43.618;25.342;2022-09-13T06:57:34;99815.28;;;19.55;90.63
7333;BME280;3707;43.618;25.342;2022-09-13T07:00:03;99911.78;;;20.51;89.75
7333;BME280;3707;43.618;25.342;2022-09-13T07:02:30;99912.72;;;20.50;89.25
7333;BME280;3707;43.618;25.342;2022-09-13T07:04:57;99907.25;;;20.58;85.19
7333;BME280;3707;43.618;25.342;2022-09-13T07:07:23;99909.50;;;20.70;84.31
7333;BME280;3707;43.618;25.342;2022-09-13T07:09:50;99911.22;;;20.72;84.12
7333;BME280;3707;43.618;25.342;2022-09-13T07:12:17;99910.50;;;20.66;84.55
7333;BME280;3707;43.618;25.342;2022-09-13T07:14:44;99902.13;;;20.83;84.78
7333;BME280;3707;43.618;25.342;2022-09-13T07:17:12;99903.50;;;20.94;83.41
7333;BME280;3707;43.618;25.342;2022-09-13T07:19:39;99905.47;;;21.18;82.82
7333;BME280;3707;43.618;25.342;2022-09-13T07:22:06;99903.53;;;21.23;81.18
7333;BME280;3707;43.618;25.342;2022-09-13T07:24:33;99902.25;;;21.37;80.96
7333;BME280;3707;43.618;25.342;2022-09-13T07:26:59;99876.38;;;21.20;80.23
7333;BME280;3707;43.618;25.342;2022-09-13T07:29:26;99913.00;;;21.57;78.69
7333;BME280;3707;43.618;25.342;2022-09-13T07:31:54;99894.75;;;21.51;78.45
7333;BME280;3707;43.618;25.342;2022-09-13T07:34:25;99898.88;;;21.32;78.24
7333;BME280;3707;43.618;25.342;2022-09-13T07:36:52;99901.84;;;21.49;78.04
7333;BME280;3707;43.618;25.342;2022-09-13T07:39:19;99925.47;;;21.52;77.70
7333;BME280;3707;43.618;25.342;2022-09-13T07:41:46;99926.88;;;21.36;78.72
7333;BME280;3707;43.618;25.342;2022-09-13T07:44:13;99909.72;;;21.50;78.21
7333;BME280;3707;43.618;25.342;2022-09-13T07:46:40;99925.78;;;21.69;77.82
7333;BME280;3707;43.618;25.342;2022-09-13T07:49:08;99908.34;;;21.65;77.65
7333;BME280;3707;43.618;25.342;2022-09-13T07:51:38;99931.22;;;21.92;77.19
7333;BME280;3707;43.618;25.342;2022-09-13T07:54:06;99936.16;;;22.01;77.54
7333;BME280;3707;43.618;25.342;2022-09-13T07:56:36;99928.25;;;22.26;75.24
7333;BME280;3707;43.618;25.342;2022-09-13T07:59:05;99932.63;;;22.02;75.27
7333;BME280;3707;43.618;25.342;2022-09-13T08:01:34;99921.28;;;22.25;74.84
7333;BME280;3707;43.618;25.342;2022-09-13T08:04:03;99930.59;;;22.35;74.25
7333;BME280;3707;43.618;25.342;2022-09-13T08:06:31;99843.59;;;22.06;73.01
7333;BME280;3707;43.618;25.342;2022-09-13T08:09:01;99900.16;;;22.48;72.41
7333;BME280;3707;43.618;25.342;2022-09-13T08:11:30;99916.78;;;22.52;72.03
7333;BME280;3707;43.618;25.342;2022-09-13T08:13:57;99930.09;;;22.49;71.58
7333;BME280;3707;43.618;25.342;2022-09-13T08:16:28;99924.03;;;22.47;71.49
7333;BME280;3707;43.618;25.342;2022-09-13T08:18:58;99921.00;;;22.57;71.77
7333;BME280;3707;43.618;25.342;2022-09-13T08:21:25;99923.44;;;22.39;71.81
7333;BME280;3707;43.618;25.342;2022-09-13T08:23:56;99913.16;;;22.79;70.34
7333;BME280;3707;43.618;25.342;2022-09-13T08:26:30;99886.25;;;22.68;70.70
7333;BME280;3707;43.618;25.342;2022-09-13T08:29:00;99882.09;;;22.61;69.04
7333;BME280;3707;43.618;25.342;2022-09-13T08:31:27;99893.38;;;22.89;67.00
7333;BME280;3707;43.618;25.342;2022-09-13T08:33:54;99811.53;;;22.63;66.18
7333;BME280;3707;43.618;25.342;2022-09-13T08:36:22;99865.97;;;23.13;62.93
7333;BME280;3707;43.618;25.342;2022-09-13T08:38:50;99872.91;;;23.38;61.65
7333;BME280;3707;43.618;25.342;2022-09-13T08:41:56;99874.28;;;23.48;62.23
7333;BME280;3707;43.618;25.342;2022-09-13T08:44:27;99848.81;;;23.23;62.10
7333;BME280;3707;43.618;25.342;2022-09-13T08:47:01;99871.59;;;23.49;60.34
7333;BME280;3707;43.618;25.342;2022-09-13T08:49:32;99871.72;;;23.68;59.39
7333;BME280;3707;43.618;25.342;2022-09-13T08:52:09;99876.59;;;23.77;57.72
7333;BME280;3707;43.618;25.342;2022-09-13T08:54:38;99873.63;;;23.64;59.14
7333;BME280;3707;43.618;25.342;2022-09-13T08:57:12;99882.59;;;24.02;57.27
7333;BME280;3707;43.618;25.342;2022-09-13T08:59:50;99878.59;;;24.14;57.53
7333;BME280;3707;43.618;25.342;2022-09-13T09:02:31;99876.38;;;24.24;54.50
7333;BME280;3707;43.618;25.342;2022-09-13T09:05:05;99881.81;;;24.21;53.49
7333;BME280;3707;43.618;25.342;2022-09-13T09:07:40;99885.34;;;24.21;52.25
7333;BME280;3707;43.618;25.342;2022-09-13T09:10:14;99875.94;;;24.12;50.12
7333;BME280;3707;43.618;25.342;2022-09-13T09:12:45;99842.31;;;23.94;50.48
7333;BME280;3707;43.618;25.342;2022-09-13T09:15:15;99858.00;;;23.99;50.15
7333;BME280;3707;43.618;25.342;2022-09-13T09:17:52;99878.69;;;24.11;52.21
7333;BME280;3707;43.618;25.342;2022-09-13T09:20:24;99873.31;;;24.12;52.72
7333;BME280;3707;43.618;25.342;2022-09-13T09:22:53;99869.63;;;24.16;50.87
7333;BME280;3707;43.618;25.342;2022-09-13T09:25:22;99864.97;;;24.42;50.48
7333;BME280;3707;43.618;25.342;2022-09-13T09:27:51;99864.28;;;24.37;48.75
7333;BME280;3707;43.618;25.342;2022-09-13T09:30:18;99856.91;;;24.25;48.73
7333;BME280;3707;43.618;25.342;2022-09-13T09:33:09;99858.81;;;24.60;52.32
7333;BME280;3707;43.618;25.342;2022-09-13T09:35:47;99839.81;;;24.69;49.86
7333;BME280;3707;43.618;25.342;2022-09-13T09:38:31;99831.75;;;24.72;49.53
7333;BME280;3707;43.618;25.342;2022-09-13T09:41:03;99844.97;;;24.92;49.22
7333;BME280;3707;43.618;25.342;2022-09-13T09:43:36;99851.38;;;24.68;44.76
7333;BME280;3707;43.618;25.342;2022-09-13T09:46:06;99855.66;;;24.52;45.33
7333;BME280;3707;43.618;25.342;2022-09-13T09:48:39;99843.28;;;24.71;44.57
7333;BME280;3707;43.618;25.342;2022-09-13T09:51:10;99839.16;;;24.84;44.72
7333;BME280;3707;43.618;25.342;2022-09-13T09:53:40;99835.47;;;24.68;43.42
7333;BME280;3707;43.618;25.342;2022-09-13T09:56:23;99839.00;;;24.87;44.18
7333;BME280;3707;43.618;25.342;2022-09-13T09:58:52;99850.28;;;24.92;44.33
7333;BME280;3707;43.618;25.342;2022-09-13T10:01:24;99842.84;;;24.80;44.41
7333;BME280;3707;43.618;25.342;2022-09-13T10:03:57;99847.03;;;24.86;43.45
7333;BME280;3707;43.618;25.342;2022-09-13T10:06:27;99838.75;;;24.73;43.59
7333;BME280;3707;43.618;25.342;2022-09-13T10:08:58;99841.00;;;24.82;44.15
7333;BME280;3707;43.618;25.342;2022-09-13T10:11:41;99832.81;;;24.68;44.39
7333;BME280;3707;43.618;25.342;2022-09-13T10:14:29;99834.81;;;24.63;44.86
7333;BME280;3707;43.618;25.342;2022-09-13T10:17:14;99798.63;;;24.43;45.16
7333;BME280;3707;43.618;25.342;2022-09-13T10:19:51;99828.66;;;24.62;44.48
7333;BME280;3707;43.618;25.342;2022-09-13T10:22:19;99824.22;;;24.63;44.94
7333;BME280;3707;43.618;25.342;2022-09-13T10:24:45;99810.75;;;24.67;43.80
7333;BME280;3707;43.618;25.342;2022-09-13T10:27:21;99792.06;;;24.89;43.11
7333;BME280;3707;43.618;25.342;2022-09-13T10:29:53;99809.50;;;25.12;42.99
7333;BME280;3707;43.618;25.342;2022-09-13T10:32:24;99815.31;;;25.01;42.85
7333;BME280;3707;43.618;25.342;2022-09-13T10:34:51;99822.00;;;25.10;42.30
7333;BME280;3707;43.618;25.342;2022-09-13T10:37:21;99810.38;;;25.12;42.32
7333;BME280;3707;43.618;25.342;2022-09-13T10:39:58;99812.69;;;25.18;41.64
7333;BME280;3707;43.618;25.342;2022-09-13T10:42:27;99807.88;;;25.09;41.39
7333;BME280;3707;43.618;25.342;2022-09-13T10:44:59;99800.72;;;25.29;41.07
7333;BME280;3707;43.618;25.342;2022-09-13T10:47:31;99784.84;;;25.10;40.87
7333;BME280;3707;43.618;25.342;2022-09-13T10:50:15;99790.38;;;25.23;41.43
7333;BME280;3707;43.618;25.342;2022-09-13T10:52:45;99801.97;;;25.39;40.85
7333;BME280;3707;43.618;25.342;2022-09-13T10:55:25;99800.09;;;25.41;40.35
7333;BME280;3707;43.618;25.342;2022-09-13T10:57:54;99796.22;;;25.65;39.89
7333;BME280;3707;43.618;25.342;2022-09-13T11:00:24;99791.72;;;25.67;39.21
7333;BME280;3707;43.618;25.342;2022-09-13T11:03:07;99785.78;;;25.26;39.93
7333;BME280;3707;43.618;25.342;2022-09-13T11:05:42;99795.94;;;25.54;40.50
7333;BME280;3707;43.618;25.342;2022-09-13T11:08:25;99796.44;;;25.43;39.59
7333;BME280;3707;43.618;25.342;2022-09-13T11:11:03;99786.66;;;25.44;39.37
7333;BME280;3707;43.618;25.342;2022-09-13T11:13:47;99788.91;;;25.53;39.29
7333;BME280;3707;43.618;25.342;2022-09-13T11:16:33;99782.56;;;25.90;39.33
7333;BME280;3707;43.618;25.342;2022-09-13T11:19:18;99787.19;;;25.86;38.03
7333;BME280;3707;43.618;25.342;2022-09-13T11:22:01;99782.78;;;25.85;37.99
7333;BME280;3707;43.618;25.342;2022-09-13T11:24:44;99780.22;;;25.67;38.70
7333;BME280;3707;43.618;25.342;2022-09-13T11:27:22;99773.09;;;25.84;38.92
7333;BME280;3707;43.618;25.342;2022-09-13T11:30:10;99777.16;;;25.91;39.10
7333;BME280;3707;43.618;25.342;2022-09-13T11:36:03;99769.66;;;25.65;39.08
7333;BME280;3707;43.618;25.342;2022-09-13T11:38:46;99768.47;;;25.88;39.37
7333;BME280;3707;43.618;25.342;2022-09-13T11:41:25;99770.66;;;25.80;39.07
7333;BME280;3707;43.618;25.342;2022-09-13T11:44:17;99750.00;;;26.02;37.72
7333;BME280;3707;43.618;25.342;2022-09-13T11:46:50;99769.06;;;26.10;37.30
7333;BME280;3707;43.618;25.342;2022-09-13T11:52:37;99755.13;;;25.89;38.44
7333;BME280;3707;43.618;25.342;2022-09-13T11:55:15;99725.31;;;25.67;39.01
7333;BME280;3707;43.618;25.342;2022-09-13T11:57:46;99749.94;;;26.03;38.90
7333;BME280;3707;43.618;25.342;2022-09-13T12:00:19;99740.00;;;25.40;39.01
7333;BME280;3707;43.618;25.342;2022-09-13T12:02:55;99764.72;;;25.92;38.63
7333;BME280;3707;43.618;25.342;2022-09-13T12:05:27;99753.16;;;25.93;38.59
7333;BME280;3707;43.618;25.342;2022-09-13T12:07:57;99753.22;;;25.91;38.17
7333;BME280;3707;43.618;25.342;2022-09-13T12:10:29;99753.22;;;25.91;38.66
7333;BME280;3707;43.618;25.342;2022-09-13T12:13:01;99742.00;;;25.86;37.64
7333;BME280;3707;43.618;25.342;2022-09-13T12:15:35;99743.25;;;26.12;38.07
7333;BME280;3707;43.618;25.342;2022-09-13T12:18:05;99749.16;;;26.34;37.50
7333;BME280;3707;43.618;25.342;2022-09-13T12:20:39;99725.22;;;26.34;37.52
7333;BME280;3707;43.618;25.342;2022-09-13T12:23:13;99742.22;;;26.47;37.65
7333;BME280;3707;43.618;25.342;2022-09-13T12:25:47;99746.94;;;26.58;37.74
7333;BME280;3707;43.618;25.342;2022-09-13T12:28:21;99731.25;;;26.38;38.19
7333;BME280;3707;43.618;25.342;2022-09-13T12:30:52;99739.91;;;26.57;37.08
7333;BME280;3707;43.618;25.342;2022-09-13T12:33:21;99735.00;;;26.34;37.75
7333;BME280;3707;43.618;25.342;2022-09-13T12:36:06;99748.50;;;26.46;37.75
7333;BME280;3707;43.618;25.342;2022-09-13T12:39:01;99746.69;;;26.47;37.52
7333;BME280;3707;43.618;25.342;2022-09-13T12:41:42;99749.97;;;26.19;38.82
7333;BME280;3707;43.618;25.342;2022-09-13T12:44:28;99746.16;;;26.40;39.03
7333;BME280;3707;43.618;25.342;2022-09-13T12:50:34;99742.22;;;26.94;37.95
7333;BME280;3707;43.618;25.342;2022-09-13T12:53:17;99734.41;;;26.91;37.96
7333;BME280;3707;43.618;25.342;2022-09-13T12:55:59;99735.53;;;26.87;37.33
7333;BME280;3707;43.618;25.342;2022-09-13T12:58:36;99739.81;;;26.90;36.94
7333;BME280;3707;43.618;25.342;2022-09-13T13:01:09;99736.03;;;27.09;36.72
7333;BME280;3707;43.618;25.342;2022-09-13T13:03:45;99738.44;;;27.14;36.72
7333;BME280;3707;43.618;25.342;2022-09-13T13:06:26;99723.44;;;27.27;36.87
7333;BME280;3707;43.618;25.342;2022-09-13T13:08:58;99734.31;;;27.08;36.50
7333;BME280;3707;43.618;25.342;2022-09-13T13:11:27;99734.16;;;26.80;37.02
7333;BME280;3707;43.618;25.342;2022-09-13T13:13:57;99720.25;;;26.59;36.67
7333;BME280;3707;43.618;25.342;2022-09-13T13:16:29;99731.75;;;26.60;37.53
7333;BME280;3707;43.618;25.342;2022-09-13T13:18:58;99732.16;;;26.37;38.03
7333;BME280;3707;43.618;25.342;2022-09-13T13:21:31;99702.91;;;26.37;38.15
7333;BME280;3707;43.618;25.342;2022-09-13T13:30:39;99744.94;;;26.30;38.79
7333;BME280;3707;43.618;25.342;2022-09-13T13:33:16;99742.88;;;26.20;38.79
7333;BME280;3707;43.618;25.342;2022-09-13T13:35:43;99715.81;;;26.11;39.79
7333;BME280;3707;43.618;25.342;2022-09-13T13:38:15;99744.03;;;26.14;41.09
7333;BME280;3707;43.618;25.342;2022-09-13T13:40:45;99715.41;;;26.03;40.77
7333;BME280;3707;43.618;25.342;2022-09-13T13:43:33;99728.00;;;26.15;40.80
7333;BME280;3707;43.618;25.342;2022-09-13T13:46:23;99742.81;;;26.37;41.82
7333;BME280;3707;43.618;25.342;2022-09-13T13:48:50;99741.50;;;25.95;40.26
7333;BME280;3707;43.618;25.342;2022-09-13T13:51:24;99744.09;;;26.30;40.17
7333;BME280;3707;43.618;25.342;2022-09-13T13:53:55;99742.06;;;26.50;40.39